メインページ
METAR-TAF:

METAR-TAF

空港 :

関西国際空港, 日本

緯度: 34-25N, 経度: 135-15E, 海抜: 5m

現時点の気象観測

当レポートは15分前の11:30(UTC)に作成
南/南西の風 7kt
気温 18°C
湿度 64%
気圧 1019 hPa
視程10km以上
1,500メートル以下は雲なし、積乱雲なし

METAR: RJBB 201130Z 21007KT CAVOK 18/11 Q1019 NOSIG

時間: 20:45 (11:45 UTC)

予報

当レポートは39分前の11:06(UTC)に作成
予報は20日の 12時(UTC)から 21日の 18時(UTC)まで有効
南西の風 6kt
視程10km以上
高度3000ftの雲はほとんどない
20日の 13時(UTC)から 20日の 15時(UTC)まで徐々に
東/北東の風 8kt
21日の 03時(UTC)から 21日の 06時(UTC)まで徐々に
西/南西の風 12kt
21日の 12時(UTC)から 21日の 15時(UTC)まで徐々に
東/北東の風 8kt

TAF: RJBB 201106Z 2012/2118 23006KT 9999 FEW030 BECMG 2013/2015 07008KT BECMG 2103/2106 24012KT BECMG 2112/2115 07008KT

4,000以上の空港の気象観測と天気予報(METAR報とTAF報)

利用可能な観測所は地図上に黄色い丸と赤い丸で示す。

丸の上にカーソルを重ねると観測所名を参照できる。

次にクリックすると気象観測と天気予報を参照できる。

マップの切り替え:黒色「×」印の緑ボタンをクリックして拡大、「-」印の緑ボタンをクリックして縮小、緑色の三角印をクリックして隣りの地図に切り替え


METAR-TAF: